Route Details

Aircraft Information
Group: European Fleet
Types: A30F, A31F, B738
Route Data
Distance: 1000nm
Duration: 3h 04m
Origin METAR: LPPT 171130Z 34016KT 290V030 9999 FEW040 23/12 Q1017
Dest. METAR: EDDK 171120Z AUTO 26005KT 200V330 CAVOK 25/15 Q1011 NOSIG
Freight Data
(for Aug 18, 2022)
Load Factor:
84%
Manifested Cargo: 47,614lbs
Financial History
Total Freight: 87,231lbs
Average Load: 0lbs/flt
Fuel Used: 53,747lbs
Avg. Fuel Used: 0lbs/flt
Fuel Expense: $17,982
Avg. Fuel Expense: $0
Avg. Fuel Cost: $0/lbs
Total Gross Income: $178,038
Pilot Pay: $518
Total Expenses: $26,599
Total Revenue: $131,997
Average Revenue: $0

Capitol Logistics 536




LPPT
Aeroporto da Portela de Sacavem
Lisbon, PT
EDDK
Cologne Bonn Airport
Cologne, DE